Time;durP1;ratioP1;P1;durP2;ratioP2;P2;SDS_P1;SDS_P2;PMS_P1;PMS_P2;Temp;Humidity;BMP_temperature;BMP_pressure;BME280_temperature;BME280_humidity;BME280_pressure;Samples;Min_cycle;Max_cycle;Signal;HPM_P1;HPM_P2
2022/11/11 00:00:44;;;;;;;4.43;3.53;;;;;;;;;;5056460;28;20228;-70
2022/11/11 00:03:11;;;;;;;4.72;3.60;;;;;;;;;;5057027;28;20244;-70
2022/11/11 00:05:39;;;;;;;5.25;3.55;;;;;;;;;;5056117;28;20255;-71
2022/11/11 00:08:07;;;;;;;3.85;3.45;;;;;;;;;;5055627;28;20244;-70
2022/11/11 00:10:35;;;;;;;4.68;3.35;;;;;;;;;;5056754;28;20292;-71
2022/11/11 00:13:04;;;;;;;4.75;3.13;;;;;;;;;;5056247;28;20219;-71
2022/11/11 00:15:31;;;;;;;3.58;3.17;;;;;;;;;;5056378;28;20209;-71
2022/11/11 00:26:21;;;;;;;3.95;3.15;;;;;;;;;;5059404;28;20192;-71
2022/11/11 00:28:48;;;;;;;3.17;2.80;;;;;;;;;;5060115;28;20205;-71
2022/11/11 00:31:16;;;;;;;5.68;3.50;;;;;;;;;;5060192;28;20301;-71
2022/11/11 00:33:45;;;;;;;3.30;2.80;;;;;;;;;;5060395;28;20532;-71
2022/11/11 00:36:12;;;;;;;3.08;2.72;;;;;;;;;;5060077;28;20204;-71
2022/11/11 00:38:46;;;;;;;3.85;3.30;;;;;;;;;;5059853;28;20201;-71
2022/11/11 00:41:15;;;;;;;3.28;2.88;;;;;;;;;;5060204;28;20224;-71
2022/11/11 00:43:43;;;;;;;3.75;3.08;;;;;;;;;;5060193;28;20220;-70
2022/11/11 00:51:42;;;;;;;3.92;3.10;;;;;;;;;;5059351;28;20204;-71
2022/11/11 00:54:10;;;;;;;3.50;3.00;;;;;;;;;;5059753;28;20271;-70
2022/11/11 00:56:38;;;;;;;3.10;2.80;;;;;;;;;;5060022;28;20354;-70
2022/11/11 00:59:06;;;;;;;3.40;2.97;;;;;;;;;;5059472;28;20280;-71
2022/11/11 01:01:34;;;;;;;2.90;2.63;;;;;;;;;;5059540;28;20642;-70
2022/11/11 01:04:03;;;;;;;3.33;3.03;;;;;;;;;;5059772;28;20205;-71
2022/11/11 01:06:31;;;;;;;4.03;2.60;;;;;;;;;;5059203;28;20237;-70
2022/11/11 01:08:59;;;;;;;3.47;2.90;;;;;;;;;;5059081;28;20211;-71
2022/11/11 01:11:26;;;;;;;3.13;2.83;;;;;;;;;;5059839;28;20604;-70
2022/11/11 01:13:54;;;;;;;3.83;3.08;;;;;;;;;;5059217;28;20237;-70
2022/11/11 01:16:22;;;;;;;3.42;2.90;;;;;;;;;;5059655;28;20205;-71
2022/11/11 01:18:51;;;;;;;3.20;2.90;;;;;;;;;;5059541;28;20572;-70
2022/11/11 01:21:21;;;;;;;3.42;2.70;;;;;;;;;;5059496;28;20240;-71
2022/11/11 01:23:49;;;;;;;3.28;2.83;;;;;;;;;;5059132;28;20205;-71
2022/11/11 01:26:19;;;;;;;2.80;2.53;;;;;;;;;;5059182;28;20491;-71
2022/11/11 01:28:49;;;;;;;2.67;2.47;;;;;;;;;;5058876;28;20220;-71
2022/11/11 01:31:17;;;;;;;2.95;2.60;;;;;;;;;;5059594;28;20221;-71
2022/11/11 01:33:45;;;;;;;3.40;2.60;;;;;;;;;;5059217;28;20205;-71
2022/11/11 01:36:14;;;;;;;2.67;2.47;;;;;;;;;;5057664;28;20212;-71
2022/11/11 01:38:43;;;;;;;3.22;2.55;;;;;;;;;;5059236;28;20213;-70
2022/11/11 01:43:57;;;;;;;2.75;2.50;;;;;;;;;;5058685;28;20215;-71
2022/11/11 01:46:28;;;;;;;2.78;2.45;;;;;;;;;;5058894;28;20205;-71
2022/11/11 01:51:43;;;;;;;3.08;2.60;;;;;;;;;;5044702;28;20193;-71
2022/11/11 01:54:15;;;;;;;3.38;2.80;;;;;;;;;;5058462;28;20205;-70
2022/11/11 01:56:45;;;;;;;3.15;2.70;;;;;;;;;;5058627;28;20213;-71
2022/11/11 01:59:15;;;;;;;2.40;2.20;;;;;;;;;;5058378;28;20224;-70
2022/11/11 02:01:44;;;;;;;2.67;2.47;;;;;;;;;;5058545;28;20225;-70
2022/11/11 02:06:58;;;;;;;3.55;2.70;;;;;;;;;;5058860;28;20188;-70
2022/11/11 02:09:27;;;;;;;2.70;2.50;;;;;;;;;;5059102;28;20201;-71
2022/11/11 02:14:43;;;;;;;2.97;2.60;;;;;;;;;;5058381;28;20260;-70
2022/11/11 02:17:12;;;;;;;2.63;2.42;;;;;;;;;;5058586;28;20304;-71
2022/11/11 02:19:44;;;;;;;2.45;2.25;;;;;;;;;;5058494;28;20212;-70
2022/11/11 02:22:14;;;;;;;2.53;2.33;;;;;;;;;;5058725;28;20212;-70
2022/11/11 02:24:44;;;;;;;2.60;2.40;;;;;;;;;;5058048;28;20212;-70
2022/11/11 02:27:15;;;;;;;2.65;2.45;;;;;;;;;;5058304;28;20571;-69
2022/11/11 02:29:47;;;;;;;2.47;2.28;;;;;;;;;;5058197;28;20223;-71
2022/11/11 02:32:15;;;;;;;2.88;2.30;;;;;;;;;;5058296;28;20201;-70
2022/11/11 02:34:43;;;;;;;2.60;2.40;;;;;;;;;;5058509;28;20216;-71
2022/11/11 02:37:11;;;;;;;2.88;2.30;;;;;;;;;;5057940;28;20209;-71
2022/11/11 02:39:42;;;;;;;2.58;2.30;;;;;;;;;;5058022;28;20597;-70
2022/11/11 02:42:14;;;;;;;3.80;2.58;;;;;;;;;;5058215;28;20228;-70
2022/11/11 02:44:42;;;;;;;2.88;2.28;;;;;;;;;;5057742;28;20300;-70
2022/11/11 02:47:09;;;;;;;2.55;2.20;;;;;;;;;;5057928;28;20205;-70
2022/11/11 02:49:37;;;;;;;2.10;1.90;;;;;;;;;;5057835;28;20212;-70
2022/11/11 02:52:05;;;;;;;2.22;2.03;;;;;;;;;;5058041;28;20454;-70
2022/11/11 02:54:33;;;;;;;2.58;2.30;;;;;;;;;;5057995;28;20288;-70
2022/11/11 02:57:10;;;;;;;2.58;2.38;;;;;;;;;;5058281;28;20216;-70
2022/11/11 02:59:40;;;;;;;2.42;1.90;;;;;;;;;;5057389;28;20286;-70
2022/11/11 03:02:08;;;;;;;2.13;1.92;;;;;;;;;;5057593;28;20246;-70
2022/11/11 03:04:37;;;;;;;2.35;2.15;;;;;;;;;;5058078;28;20219;-71
2022/11/11 03:07:04;;;;;;;2.40;2.10;;;;;;;;;;5057532;28;20241;-71
2022/11/11 03:09:32;;;;;;;2.22;2.00;;;;;;;;;;5057682;28;20205;-71
2022/11/11 03:12:00;;;;;;;2.60;2.40;;;;;;;;;;5057939;28;20201;-70
2022/11/11 03:14:27;;;;;;;2.28;2.08;;;;;;;;;;5057627;28;20270;-70
2022/11/11 03:19:42;;;;;;;2.25;1.98;;;;;;;;;;5056819;28;20482;-70
2022/11/11 03:22:09;;;;;;;2.05;1.90;;;;;;;;;;5057347;28;20225;-70
2022/11/11 03:27:23;;;;;;;1.95;1.80;;;;;;;;;;5056966;28;20243;-70
2022/11/11 03:29:50;;;;;;;2.17;2.00;;;;;;;;;;5057281;28;20204;-69
2022/11/11 03:32:19;;;;;;;2.00;1.80;;;;;;;;;;5057393;28;20201;-70
2022/11/11 03:34:47;;;;;;;1.92;1.83;;;;;;;;;;5057462;28;20212;-70
2022/11/11 03:40:00;;;;;;;1.55;1.45;;;;;;;;;;5056774;28;20338;-70
2022/11/11 03:42:28;;;;;;;1.70;1.60;;;;;;;;;;5056553;28;20264;-70
2022/11/11 03:44:55;;;;;;;1.77;1.67;;;;;;;;;;5056931;28;20217;-70
2022/11/11 03:47:24;;;;;;;1.88;1.77;;;;;;;;;;5056749;28;20212;-70
2022/11/11 03:49:52;;;;;;;1.83;1.70;;;;;;;;;;5056255;28;20228;-70
2022/11/11 03:52:20;;;;;;;2.05;1.88;;;;;;;;;;5037082;28;20311;-70
2022/11/11 03:54:48;;;;;;;1.73;1.63;;;;;;;;;;5036897;28;20492;-70
2022/11/11 03:57:30;;;;;;;1.85;1.70;;;;;;;;;;5036868;28;20590;-70
2022/11/11 03:59:58;;;;;;;2.00;1.80;;;;;;;;;;5037579;28;20312;-70
2022/11/11 04:10:42;;;;;;;1.60;1.50;;;;;;;;;;5040205;28;20220;-70
2022/11/11 04:16:08;;;;;;;1.70;1.60;;;;;;;;;;5040359;28;20212;-70
2022/11/11 04:26:49;;;;;;;1.63;1.48;;;;;;;;;;5039375;28;20482;-70
2022/11/11 04:29:28;;;;;;;2.00;1.80;;;;;;;;;;5040421;28;20463;-70
2022/11/11 04:34:42;;;;;;;1.45;1.35;;;;;;;;;;5039712;28;20192;-70
2022/11/11 04:37:10;;;;;;;1.45;1.35;;;;;;;;;;5040058;28;20205;-70
2022/11/11 04:42:23;;;;;;;1.80;1.70;;;;;;;;;;5039533;28;20227;-70
2022/11/11 04:47:36;;;;;;;1.45;1.35;;;;;;;;;;5039753;28;20201;-70
2022/11/11 04:50:06;;;;;;;1.55;1.45;;;;;;;;;;5039446;28;20205;-70
2022/11/11 04:52:33;;;;;;;1.40;1.30;;;;;;;;;;5039704;28;20209;-70
2022/11/11 04:57:47;;;;;;;2.35;1.70;;;;;;;;;;5039275;28;20299;-70
2022/11/11 05:00:15;;;;;;;1.63;1.52;;;;;;;;;;5039124;28;20307;-70
2022/11/11 05:08:54;;;;;;;1.50;1.40;;;;;;;;;;5039488;28;20193;-70
2022/11/11 05:11:02;;;;;;;1.63;1.45;;;;;;;;;;5038379;28;20225;-70
2022/11/11 05:21:47;;;;;;;1.50;1.40;;;;;;;;;;5038749;28;20221;-70
2022/11/11 05:26:59;;;;;;;1.20;1.10;;;;;;;;;;5038790;28;20252;-70
2022/11/11 05:29:26;;;;;;;1.40;1.30;;;;;;;;;;5037837;28;20201;-70
2022/11/11 05:31:53;;;;;;;1.40;1.30;;;;;;;;;;5037776;28;20194;-70
2022/11/11 05:34:21;;;;;;;1.50;1.33;;;;;;;;;;5037753;28;20216;-69
2022/11/11 05:36:50;;;;;;;1.52;1.38;;;;;;;;;;5037545;28;20202;-70
2022/11/11 05:39:17;;;;;;;1.40;1.30;;;;;;;;;;5037396;28;20293;-70
2022/11/11 05:41:45;;;;;;;1.85;1.40;;;;;;;;;;5037702;28;20225;-70
2022/11/11 05:44:12;;;;;;;1.30;1.20;;;;;;;;;;5037685;28;20595;-69
2022/11/11 05:46:39;;;;;;;1.13;1.05;;;;;;;;;;5037364;28;20202;-69
2022/11/11 05:49:16;;;;;;;1.40;1.30;;;;;;;;;;5037110;28;20472;-70
2022/11/11 05:51:43;;;;;;;1.40;1.30;;;;;;;;;;5035810;28;20488;-70
2022/11/11 05:54:12;;;;;;;1.40;1.30;;;;;;;;;;5036430;28;20217;-70
2022/11/11 05:56:39;;;;;;;1.17;1.10;;;;;;;;;;5035293;28;20206;-70
2022/11/11 05:59:07;;;;;;;1.33;1.23;;;;;;;;;;5036504;28;20240;-70
2022/11/11 06:01:36;;;;;;;1.20;1.10;;;;;;;;;;5035846;28;20228;-70
2022/11/11 06:04:03;;;;;;;1.25;1.15;;;;;;;;;;5037062;28;20458;-70
2022/11/11 06:06:30;;;;;;;1.30;1.20;;;;;;;;;;5036126;28;20197;-70
2022/11/11 06:08:58;;;;;;;1.30;1.20;;;;;;;;;;5035899;28;20211;-70
2022/11/11 06:11:27;;;;;;;1.30;1.20;;;;;;;;;;5035554;28;20241;-70
2022/11/11 06:13:55;;;;;;;1.33;1.23;;;;;;;;;;5036010;28;20220;-70
2022/11/11 06:16:23;;;;;;;1.00;0.98;;;;;;;;;;5049853;28;20227;-70
2022/11/11 06:18:50;;;;;;;1.25;1.15;;;;;;;;;;5054971;28;20299;-70
2022/11/11 06:21:18;;;;;;;1.23;1.13;;;;;;;;;;5055301;28;20596;-69
2022/11/11 06:23:46;;;;;;;1.33;1.23;;;;;;;;;;5054127;28;20269;-70
2022/11/11 06:26:12;;;;;;;1.10;1.00;;;;;;;;;;5055100;28;20211;-70
2022/11/11 06:28:41;;;;;;;1.27;1.17;;;;;;;;;;5054199;28;20200;-70
2022/11/11 06:31:10;;;;;;;1.30;1.20;;;;;;;;;;5054738;28;20193;-70
2022/11/11 06:33:38;;;;;;;1.20;1.10;;;;;;;;;;5054658;28;20267;-70
2022/11/11 06:36:06;;;;;;;1.00;1.00;;;;;;;;;;5054402;28;20215;-70
2022/11/11 06:38:34;;;;;;;1.40;1.30;;;;;;;;;;5055730;28;20197;-70
2022/11/11 06:41:01;;;;;;;1.33;1.00;;;;;;;;;;5054950;28;20204;-70
2022/11/11 06:43:28;;;;;;;1.23;1.08;;;;;;;;;;5053629;28;20201;-70
2022/11/11 06:45:57;;;;;;;1.63;1.20;;;;;;;;;;5053779;28;20208;-70
2022/11/11 06:48:26;;;;;;;1.30;1.20;;;;;;;;;;5054052;28;20201;-70
2022/11/11 06:50:54;;;;;;;1.27;1.17;;;;;;;;;;5054113;28;20516;-70
2022/11/11 06:53:22;;;;;;;1.40;1.30;;;;;;;;;;5054805;28;20215;-70
2022/11/11 06:55:52;;;;;;;1.27;1.17;;;;;;;;;;5054990;28;20216;-70
2022/11/11 06:58:20;;;;;;;1.40;1.30;;;;;;;;;;5053736;28;20593;-70
2022/11/11 07:00:49;;;;;;;1.40;1.30;;;;;;;;;;5054826;28;20197;-70
2022/11/11 07:03:19;;;;;;;1.15;1.05;;;;;;;;;;5054708;28;20625;-70
2022/11/11 07:05:46;;;;;;;1.25;1.15;;;;;;;;;;5055189;28;20236;-70
2022/11/11 07:08:14;;;;;;;1.38;1.27;;;;;;;;;;5055253;28;20211;-70
2022/11/11 07:10:44;;;;;;;1.52;1.30;;;;;;;;;;5054504;28;20291;-71
2022/11/11 07:13:11;;;;;;;1.40;1.30;;;;;;;;;;5055225;28;20201;-70
2022/11/11 07:15:39;;;;;;;1.40;1.30;;;;;;;;;;5055031;28;20213;-70
2022/11/11 07:18:06;;;;;;;1.60;1.50;;;;;;;;;;5054545;28;20200;-70
2022/11/11 07:20:36;;;;;;;1.40;1.30;;;;;;;;;;5054686;28;20227;-70
2022/11/11 07:23:03;;;;;;;2.10;1.35;;;;;;;;;;5054301;28;20228;-70
2022/11/11 07:25:31;;;;;;;2.20;1.33;;;;;;;;;;5053650;28;20589;-70
2022/11/11 07:27:59;;;;;;;2.28;1.40;;;;;;;;;;5054665;28;20209;-70
2022/11/11 07:30:26;;;;;;;2.38;1.38;;;;;;;;;;5054308;28;20212;-70
2022/11/11 07:32:54;;;;;;;1.55;1.30;;;;;;;;;;5054929;28;20201;-70
2022/11/11 07:35:22;;;;;;;2.83;1.40;;;;;;;;;;5054427;28;20205;-70
2022/11/11 07:37:52;;;;;;;1.88;1.25;;;;;;;;;;5054333;28;20205;-70
2022/11/11 07:40:20;;;;;;;1.73;1.23;;;;;;;;;;5052508;28;20303;-70
2022/11/11 07:42:47;;;;;;;2.53;1.30;;;;;;;;;;5034560;28;20232;-70
2022/11/11 07:45:15;;;;;;;1.73;1.50;;;;;;;;;;5034396;28;20201;-70
2022/11/11 07:47:46;;;;;;;1.40;1.30;;;;;;;;;;5034941;28;20206;-70
2022/11/11 07:50:13;;;;;;;1.67;1.40;;;;;;;;;;5035203;28;20701;-70
2022/11/11 07:52:41;;;;;;;1.73;1.33;;;;;;;;;;5034174;28;20213;-70
2022/11/11 07:55:10;;;;;;;2.13;1.50;;;;;;;;;;5033815;28;20447;-70
2022/11/11 07:57:38;;;;;;;1.48;1.38;;;;;;;;;;5034065;28;20205;-70
2022/11/11 08:00:06;;;;;;;2.28;1.50;;;;;;;;;;5044258;28;20192;-70
2022/11/11 08:02:35;;;;;;;2.20;1.40;;;;;;;;;;5054228;28;20236;-70
2022/11/11 08:05:02;;;;;;;1.65;1.50;;;;;;;;;;5053318;28;20663;-70
2022/11/11 08:07:30;;;;;;;1.90;1.30;;;;;;;;;;5053488;28;20489;-70
2022/11/11 08:09:57;;;;;;;1.40;1.30;;;;;;;;;;5044741;28;20243;-70
2022/11/11 08:15:11;;;;;;;2.75;1.60;;;;;;;;;;5034335;28;20529;-70
2022/11/11 08:17:39;;;;;;;2.30;1.38;;;;;;;;;;5033868;28;20232;-70
2022/11/11 08:20:07;;;;;;;2.63;1.52;;;;;;;;;;5037849;28;20202;-70
2022/11/11 08:22:37;;;;;;;1.30;1.20;;;;;;;;;;5033132;28;20222;-70
2022/11/11 08:25:05;;;;;;;1.33;1.23;;;;;;;;;;5034408;28;20205;-70
2022/11/11 08:27:33;;;;;;;1.40;1.30;;;;;;;;;;5034031;28;20212;-70
2022/11/11 08:30:01;;;;;;;1.50;1.40;;;;;;;;;;5042666;28;20201;-70
2022/11/11 08:32:28;;;;;;;1.50;1.40;;;;;;;;;;5052618;28;20189;-70
2022/11/11 08:34:56;;;;;;;1.42;1.33;;;;;;;;;;5054010;28;20205;-70
2022/11/11 08:37:23;;;;;;;1.30;1.20;;;;;;;;;;5054430;28;20211;-70
2022/11/11 08:39:51;;;;;;;1.40;1.30;;;;;;;;;;5045649;28;20263;-70
2022/11/11 08:42:19;;;;;;;1.40;1.27;;;;;;;;;;5033712;28;20553;-70
2022/11/11 08:44:48;;;;;;;1.45;1.30;;;;;;;;;;5034136;28;20615;-70
2022/11/11 08:47:15;;;;;;;1.35;1.25;;;;;;;;;;5036979;28;20216;-70
2022/11/11 08:49:43;;;;;;;1.38;1.27;;;;;;;;;;5043510;28;20280;-70
2022/11/11 08:52:10;;;;;;;1.75;1.10;;;;;;;;;;5056825;28;20269;-70
2022/11/11 08:54:38;;;;;;;1.27;1.17;;;;;;;;;;5056817;28;20266;-70
2022/11/11 08:57:05;;;;;;;1.27;1.17;;;;;;;;;;5056459;28;20219;-70
2022/11/11 08:59:32;;;;;;;1.35;1.10;;;;;;;;;;5056686;28;20704;-70
2022/11/11 09:02:01;;;;;;;1.20;1.10;;;;;;;;;;5056632;28;20614;-70
2022/11/11 09:04:29;;;;;;;1.40;1.30;;;;;;;;;;5057370;28;20216;-70
2022/11/11 09:06:56;;;;;;;1.30;1.20;;;;;;;;;;5056789;28;20281;-70
2022/11/11 09:09:23;;;;;;;1.30;1.20;;;;;;;;;;5053730;28;20613;-70
2022/11/11 09:11:51;;;;;;;1.40;1.30;;;;;;;;;;5036551;28;20205;-70
2022/11/11 09:14:18;;;;;;;1.52;1.23;;;;;;;;;;5037296;28;20306;-70
2022/11/11 09:16:45;;;;;;;1.02;0.98;;;;;;;;;;5036622;28;20212;-70
2022/11/11 09:19:14;;;;;;;1.08;0.98;;;;;;;;;;5037081;28;20517;-70
2022/11/11 09:21:42;;;;;;;1.30;1.20;;;;;;;;;;5056559;28;20707;-70
2022/11/11 09:24:09;;;;;;;1.25;1.15;;;;;;;;;;5056620;28;20209;-70
2022/11/11 09:26:37;;;;;;;1.40;1.30;;;;;;;;;;5056443;28;20506;-70
2022/11/11 09:29:04;;;;;;;1.40;1.30;;;;;;;;;;5056266;28;20211;-70
2022/11/11 09:31:31;;;;;;;1.20;1.10;;;;;;;;;;5036400;28;20212;-70
2022/11/11 09:33:59;;;;;;;1.25;1.15;;;;;;;;;;5036396;28;20201;-70
2022/11/11 09:36:28;;;;;;;1.00;1.00;;;;;;;;;;5036034;28;20245;-70
2022/11/11 09:38:55;;;;;;;1.38;1.27;;;;;;;;;;5036445;28;20216;-70
2022/11/11 09:41:25;;;;;;;1.30;1.20;;;;;;;;;;5036504;28;20208;-70
2022/11/11 09:43:57;;;;;;;1.25;1.15;;;;;;;;;;5036051;28;20228;-70
2022/11/11 09:46:31;;;;;;;1.35;1.25;;;;;;;;;;5036547;28;20205;-70
2022/11/11 09:49:04;;;;;;;0.90;0.90;;;;;;;;;;5035673;28;20206;-70
2022/11/11 09:51:37;;;;;;;1.60;1.17;;;;;;;;;;5055699;28;20205;-70
2022/11/11 09:54:08;;;;;;;1.10;1.00;;;;;;;;;;5056023;28;20200;-70
2022/11/11 09:56:37;;;;;;;1.63;1.20;;;;;;;;;;5055978;28;20244;-70
2022/11/11 09:59:08;;;;;;;1.77;1.00;;;;;;;;;;5055237;28;20241;-70
2022/11/11 10:01:39;;;;;;;1.23;1.13;;;;;;;;;;5036066;28;20209;-70
2022/11/11 10:04:08;;;;;;;1.88;1.10;;;;;;;;;;5036208;28;20229;-70
2022/11/11 10:06:38;;;;;;;1.60;1.13;;;;;;;;;;5036340;28;20205;-69
2022/11/11 10:09:08;;;;;;;1.20;1.13;;;;;;;;;;5036077;28;20622;-70
2022/11/11 10:11:42;;;;;;;1.27;1.17;;;;;;;;;;5055180;28;20447;-70
2022/11/11 10:14:09;;;;;;;1.27;1.10;;;;;;;;;;5056288;28;20200;-70
2022/11/11 10:16:41;;;;;;;1.23;0.98;;;;;;;;;;5055768;28;20298;-70
2022/11/11 10:19:14;;;;;;;1.23;1.10;;;;;;;;;;5054746;28;20215;-70
2022/11/11 10:21:45;;;;;;;1.23;0.90;;;;;;;;;;5035184;28;20292;-70
2022/11/11 10:24:16;;;;;;;1.67;1.05;;;;;;;;;;5034933;28;20610;-70
2022/11/11 10:26:45;;;;;;;1.20;0.93;;;;;;;;;;5035435;28;20213;-70
2022/11/11 10:29:15;;;;;;;0.95;0.90;;;;;;;;;;5035332;28;20205;-70
2022/11/11 10:31:43;;;;;;;1.00;0.90;;;;;;;;;;5054146;28;20205;-70
2022/11/11 10:34:12;;;;;;;1.30;1.20;;;;;;;;;;5054439;28;20204;-70
2022/11/11 10:36:44;;;;;;;1.30;1.20;;;;;;;;;;5054758;28;20212;-70
2022/11/11 10:39:16;;;;;;;1.10;1.00;;;;;;;;;;5055646;28;20301;-70
2022/11/11 10:41:45;;;;;;;0.90;0.90;;;;;;;;;;5054276;28;20193;-70
2022/11/11 10:44:20;;;;;;;1.42;0.98;;;;;;;;;;5054964;28;20224;-70
2022/11/11 10:46:53;;;;;;;1.65;1.00;;;;;;;;;;5054220;28;20492;-70
2022/11/11 10:49:24;;;;;;;2.70;1.08;;;;;;;;;;5055269;28;20201;-70
2022/11/11 10:51:53;;;;;;;1.15;1.05;;;;;;;;;;5048560;28;20209;-71
2022/11/11 10:54:25;;;;;;;0.98;0.90;;;;;;;;;;5035007;28;20202;-70
2022/11/11 10:56:57;;;;;;;1.30;1.05;;;;;;;;;;5033906;28;20908;-70
2022/11/11 10:59:26;;;;;;;2.63;1.27;;;;;;;;;;5034579;28;20230;-70
2022/11/11 11:01:56;;;;;;;3.67;1.00;;;;;;;;;;5034916;28;20211;-69
2022/11/11 11:04:29;;;;;;;1.92;1.30;;;;;;;;;;5034590;28;20237;-70
2022/11/11 11:07:02;;;;;;;1.60;1.00;;;;;;;;;;5047844;28;20192;-70
2022/11/11 11:09:37;;;;;;;1.27;1.00;;;;;;;;;;5050499;28;20255;-70
2022/11/11 11:12:08;;;;;;;1.67;1.05;;;;;;;;;;5033778;28;20213;-70
2022/11/11 11:14:38;;;;;;;1.10;1.00;;;;;;;;;;5034456;28;20202;-69
2022/11/11 11:17:09;;;;;;;1.02;1.00;;;;;;;;;;5033915;28;20213;-70
2022/11/11 11:19:38;;;;;;;1.33;0.93;;;;;;;;;;5042340;28;20201;-70
2022/11/11 11:22:05;;;;;;;3.08;0.90;;;;;;;;;;5053327;28;20207;-69
2022/11/11 11:24:36;;;;;;;0.80;0.80;;;;;;;;;;5052956;28;20227;-69
2022/11/11 11:27:05;;;;;;;1.67;1.20;;;;;;;;;;5053267;28;20204;-70
2022/11/11 11:29:34;;;;;;;1.23;1.13;;;;;;;;;;5050355;28;20197;-70
2022/11/11 11:32:14;;;;;;;1.10;1.00;;;;;;;;;;5033088;28;20201;-70
2022/11/11 11:34:49;;;;;;;1.10;0.80;;;;;;;;;;5032912;28;20704;-70
2022/11/11 11:37:17;;;;;;;2.65;1.00;;;;;;;;;;5033229;28;20207;-70
2022/11/11 11:39:46;;;;;;;1.00;0.90;;;;;;;;;;5037349;28;20489;-70
2022/11/11 11:42:28;;;;;;;1.00;0.88;;;;;;;;;;5052358;28;20200;-70
2022/11/11 11:44:55;;;;;;;1.20;1.10;;;;;;;;;;5053627;28;20550;-70
2022/11/11 11:47:30;;;;;;;0.80;0.80;;;;;;;;;;5053500;28;20197;-70
2022/11/11 11:50:09;;;;;;;1.10;1.00;;;;;;;;;;5052540;28;20616;-70
2022/11/11 11:52:42;;;;;;;1.23;0.93;;;;;;;;;;5052416;28;20295;-70
2022/11/11 11:55:14;;;;;;;1.70;1.17;;;;;;;;;;5052778;28;20287;-70
2022/11/11 11:57:49;;;;;;;1.20;0.90;;;;;;;;;;5052680;28;20237;-70
2022/11/11 12:00:19;;;;;;;1.10;1.00;;;;;;;;;;5044608;28;20197;-70
2022/11/11 12:02:55;;;;;;;1.33;1.00;;;;;;;;;;5031688;28;20286;-70
2022/11/11 12:05:25;;;;;;;0.80;0.80;;;;;;;;;;5032714;28;20208;-70
2022/11/11 12:07:59;;;;;;;0.90;0.80;;;;;;;;;;5033101;28;20228;-70
2022/11/11 12:10:36;;;;;;;1.15;1.02;;;;;;;;;;5033992;28;20190;-69
2022/11/11 12:13:07;;;;;;;1.20;1.00;;;;;;;;;;5032336;28;20189;-70
2022/11/11 12:15:37;;;;;;;1.08;0.98;;;;;;;;;;5033786;28;20205;-70
2022/11/11 12:18:16;;;;;;;1.60;0.82;;;;;;;;;;5039526;28;20201;-70
2022/11/11 12:20:49;;;;;;;1.02;0.93;;;;;;;;;;5052846;28;20207;-70
2022/11/11 12:23:28;;;;;;;1.27;0.90;;;;;;;;;;5056075;28;20229;-70
2022/11/11 12:26:02;;;;;;;1.35;1.00;;;;;;;;;;5056218;28;20196;-70
2022/11/11 12:28:35;;;;;;;1.05;0.80;;;;;;;;;;5056822;28;20196;-70
2022/11/11 12:31:06;;;;;;;1.33;0.95;;;;;;;;;;5042351;28;20212;-70
2022/11/11 12:33:54;;;;;;;1.65;0.93;;;;;;;;;;5036729;28;20202;-70
2022/11/11 12:36:28;;;;;;;1.10;0.90;;;;;;;;;;5031783;28;20208;-70
2022/11/11 12:38:58;;;;;;;1.55;0.90;;;;;;;;;;5036942;28;20206;-70
2022/11/11 12:41:30;;;;;;;0.98;0.80;;;;;;;;;;5051409;28;20211;-70
2022/11/11 12:44:02;;;;;;;1.00;0.88;;;;;;;;;;5055517;28;20904;-69
2022/11/11 12:46:34;;;;;;;0.70;0.70;;;;;;;;;;5055392;28;20624;-69
2022/11/11 12:49:07;;;;;;;0.90;0.80;;;;;;;;;;5055871;28;20212;-69
2022/11/11 12:51:43;;;;;;;0.80;0.70;;;;;;;;;;5039017;28;20587;-70
2022/11/11 12:54:17;;;;;;;0.93;0.80;;;;;;;;;;5037022;28;20204;-70
2022/11/11 12:56:50;;;;;;;1.10;1.00;;;;;;;;;;5040981;28;20199;-69
2022/11/11 12:59:21;;;;;;;1.13;0.85;;;;;;;;;;5056117;28;20264;-70
2022/11/11 13:01:52;;;;;;;0.60;0.60;;;;;;;;;;5056278;28;20209;-70
2022/11/11 13:04:33;;;;;;;0.98;0.88;;;;;;;;;;5055734;28;20334;-70
2022/11/11 13:07:12;;;;;;;1.10;0.82;;;;;;;;;;5048951;28;20205;-70
2022/11/11 13:09:53;;;;;;;0.80;0.77;;;;;;;;;;5035623;28;20296;-69
2022/11/11 13:12:24;;;;;;;1.02;0.75;;;;;;;;;;5035930;28;20221;-69
2022/11/11 13:14:55;;;;;;;1.00;0.93;;;;;;;;;;5036543;28;20193;-70
2022/11/11 13:17:22;;;;;;;0.98;0.70;;;;;;;;;;5044697;28;20192;-70
2022/11/11 13:19:51;;;;;;;0.70;0.70;;;;;;;;;;5055492;28;20204;-69
2022/11/11 13:22:22;;;;;;;0.70;0.70;;;;;;;;;;5056389;28;20205;-70
2022/11/11 13:24:50;;;;;;;0.60;0.60;;;;;;;;;;5056661;28;20239;-69
2022/11/11 13:27:21;;;;;;;1.38;0.77;;;;;;;;;;5047045;28;20194;-69
2022/11/11 13:30:01;;;;;;;0.80;0.80;;;;;;;;;;5036432;28;20206;-69
2022/11/11 13:32:31;;;;;;;1.30;0.80;;;;;;;;;;5035636;28;20217;-69
2022/11/11 13:34:59;;;;;;;1.20;0.85;;;;;;;;;;5035778;28;20202;-70
2022/11/11 13:37:28;;;;;;;0.93;0.80;;;;;;;;;;5045428;28;20665;-70
2022/11/11 13:40:00;;;;;;;0.82;0.73;;;;;;;;;;5055420;28;20215;-69
2022/11/11 13:42:28;;;;;;;0.90;0.90;;;;;;;;;;5055249;28;20205;-69
2022/11/11 13:44:58;;;;;;;1.33;0.93;;;;;;;;;;5055095;28;20225;-69
2022/11/11 13:47:29;;;;;;;0.70;0.70;;;;;;;;;;5045447;28;20201;-69
2022/11/11 13:49:58;;;;;;;0.80;0.75;;;;;;;;;;5035455;28;20597;-70
2022/11/11 13:52:27;;;;;;;0.82;0.75;;;;;;;;;;5036006;28;20201;-69
2022/11/11 13:54:58;;;;;;;0.85;0.80;;;;;;;;;;5035816;28;20251;-69
2022/11/11 13:57:28;;;;;;;0.77;0.63;;;;;;;;;;5043692;28;20193;-69
2022/11/11 13:59:58;;;;;;;0.90;0.75;;;;;;;;;;5055829;28;20491;-69
2022/11/11 14:02:31;;;;;;;0.85;0.85;;;;;;;;;;5054915;28;20211;-69
2022/11/11 14:05:26;;;;;;;0.80;0.80;;;;;;;;;;5054828;28;20545;-69
2022/11/11 14:07:58;;;;;;;0.80;0.65;;;;;;;;;;5042028;28;20208;-69
2022/11/11 14:10:59;;;;;;;0.60;0.60;;;;;;;;;;5035147;28;20216;-69
2022/11/11 14:13:37;;;;;;;0.93;0.77;;;;;;;;;;5035102;28;20202;-69
2022/11/11 14:16:05;;;;;;;0.95;0.75;;;;;;;;;;5034973;28;20207;-69
2022/11/11 14:18:45;;;;;;;1.48;0.70;;;;;;;;;;5051967;28;20201;-69
2022/11/11 14:21:32;;;;;;;0.77;0.60;;;;;;;;;;5055306;28;20212;-69
2022/11/11 14:23:59;;;;;;;1.05;0.85;;;;;;;;;;5054535;28;20224;-69
2022/11/11 14:26:31;;;;;;;1.00;0.65;;;;;;;;;;5054229;28;20209;-69
2022/11/11 14:29:02;;;;;;;1.08;0.80;;;;;;;;;;5034907;28;20203;-69
2022/11/11 14:31:47;;;;;;;0.90;0.70;;;;;;;;;;5034787;28;20283;-69
2022/11/11 14:34:20;;;;;;;0.57;0.52;;;;;;;;;;5035414;28;20205;-69
2022/11/11 14:36:51;;;;;;;0.70;0.70;;;;;;;;;;5035802;28;20216;-69
2022/11/11 14:39:25;;;;;;;0.52;0.52;;;;;;;;;;5035050;28;20267;-69
2022/11/11 14:41:53;;;;;;;0.90;0.77;;;;;;;;;;5034889;28;20243;-69
2022/11/11 14:44:38;;;;;;;0.77;0.77;;;;;;;;;;5034541;28;20236;-69
2022/11/11 14:47:24;;;;;;;0.93;0.70;;;;;;;;;;5029290;28;20197;-69
2022/11/11 14:49:54;;;;;;;0.70;0.70;;;;;;;;;;5054016;28;20213;-69
2022/11/11 14:52:24;;;;;;;0.70;0.57;;;;;;;;;;5054231;28;20251;-70
2022/11/11 14:55:00;;;;;;;0.60;0.60;;;;;;;;;;5053792;28;20197;-69
2022/11/11 14:57:30;;;;;;;0.50;0.50;;;;;;;;;;5046769;28;20196;-69
2022/11/11 14:59:58;;;;;;;1.25;0.85;;;;;;;;;;5033667;28;20205;-70
2022/11/11 15:02:28;;;;;;;0.60;0.60;;;;;;;;;;5033613;28;20213;-69
2022/11/11 15:04:59;;;;;;;0.60;0.60;;;;;;;;;;5033366;28;20222;-69
2022/11/11 15:07:31;;;;;;;0.70;0.70;;;;;;;;;;5040815;28;20197;-69
2022/11/11 15:10:04;;;;;;;0.60;0.60;;;;;;;;;;5053452;28;20207;-70
2022/11/11 15:12:39;;;;;;;0.68;0.68;;;;;;;;;;5053510;28;20215;-69
2022/11/11 15:15:11;;;;;;;0.60;0.57;;;;;;;;;;5054361;28;20201;-70
2022/11/11 15:17:43;;;;;;;1.02;0.70;;;;;;;;;;5045020;28;20194;-69
2022/11/11 15:20:32;;;;;;;0.90;0.55;;;;;;;;;;5034351;28;20630;-69
2022/11/11 15:23:03;;;;;;;0.68;0.68;;;;;;;;;;5032819;28;20206;-69
2022/11/11 15:25:35;;;;;;;0.63;0.63;;;;;;;;;;5033431;28;20626;-69
2022/11/11 15:28:08;;;;;;;0.60;0.60;;;;;;;;;;5044869;28;20574;-69
2022/11/11 15:30:50;;;;;;;0.60;0.60;;;;;;;;;;5053548;28;20235;-69
2022/11/11 15:33:21;;;;;;;0.63;0.60;;;;;;;;;;5051013;28;20566;-69
2022/11/11 15:35:52;;;;;;;0.60;0.60;;;;;;;;;;5052817;28;20208;-69
2022/11/11 15:38:20;;;;;;;0.98;0.77;;;;;;;;;;5040246;28;20777;-69
2022/11/11 15:40:49;;;;;;;1.02;0.70;;;;;;;;;;5033697;28;20219;-69
2022/11/11 15:43:18;;;;;;;0.65;0.65;;;;;;;;;;5033149;28;20274;-69
2022/11/11 15:45:45;;;;;;;1.15;0.68;;;;;;;;;;5032819;28;20233;-69
2022/11/11 15:48:20;;;;;;;0.70;0.63;;;;;;;;;;5045122;28;20198;-69
2022/11/11 15:50:47;;;;;;;0.88;0.60;;;;;;;;;;5052949;28;20200;-69
2022/11/11 15:53:22;;;;;;;0.40;0.40;;;;;;;;;;5053485;28;20205;-69
2022/11/11 15:55:53;;;;;;;0.57;0.57;;;;;;;;;;5051753;28;20204;-69
2022/11/11 15:58:26;;;;;;;0.52;0.52;;;;;;;;;;5039904;28;20233;-69
2022/11/11 16:00:53;;;;;;;0.50;0.50;;;;;;;;;;5032271;28;20205;-70
2022/11/11 16:03:22;;;;;;;0.60;0.60;;;;;;;;;;5033060;28;20202;-69
2022/11/11 16:05:49;;;;;;;0.70;0.70;;;;;;;;;;5033628;28;20236;-69
2022/11/11 16:08:20;;;;;;;0.60;0.60;;;;;;;;;;5045128;28;20197;-70
2022/11/11 16:10:48;;;;;;;0.60;0.60;;;;;;;;;;5053356;28;20228;-70
2022/11/11 16:13:17;;;;;;;0.50;0.50;;;;;;;;;;5053362;28;20748;-69
2022/11/11 16:15:46;;;;;;;0.50;0.50;;;;;;;;;;5052961;28;20291;-69
2022/11/11 16:18:16;;;;;;;1.08;0.60;;;;;;;;;;5053222;28;20766;-69
2022/11/11 16:20:45;;;;;;;0.50;0.50;;;;;;;;;;5053985;28;20260;-69
2022/11/11 16:23:16;;;;;;;0.47;0.35;;;;;;;;;;5053627;28;20207;-69